Racecast

Fiona Dunlop

The Dalles (OR) · 12 · 4A-2 TRI-VALLEYOR D4A4A · Compare head to head

Athlete rating 122.6 2022 XC season
Best race 125.1 XC
Races 72
Seasons 5 2019 — 2023

RankedNation #17386·OR #499·OR D4A #131·4A-2 TRI-VALLEY #13·Team #16 ?

Cross Country

2022 XC 116.9

The Dalles (OR) · Grade 12

Date Meet Event Result Place Rating Difficulty PR/SR Flags
2022-11-05 Lane Community College 5000m 22:38 54th · 3rd on team 120.0 +0.042 CSR
2022-10-26 McIver Park 5000m 21:40.1 10th · 3rd on team 123.3 +0.025 ★PR ★CR SR CSR RSR
2022-10-19 Pendleton Country Club 5000m 22:58.4 5th · 3rd on team 116.9 +0.025 CSR
2022-10-12 McIver Park 5000m 22:05.8 16th · 2nd on team 122.4 +0.025 CR SR CSR RSR
2022-10-06 Thompson Ranch 5000m 23:14.9 14th · 2nd on team 118.0 +0.041 CSR RSR
2022-10-01 Champoeg State Park 5000m 24:04.1 62nd · 4th on team 113.3 +0.034 CSR
2022-09-24 Blue Lake Regional Park 5000m 23:29.2 72nd · 3rd on team 114.4 +0.027 ★CR CSR
2022-09-17 Oregon City High School 5000m 23:08.2 50th · 3rd on team 117.0 +0.039 ★CR SR CSR RSR
2022-09-08 The Dalles Country Club 5000m 24:35.9 6th · 4th on team 112.6 +0.059 ★CR SR CSR RSR
2022-09-03 The Hydrangea Ranch 5000m 26:03.3 122nd · 3rd on team 110.8 +0.121 ★CR SR CSR RSR

2021 XC 118.0

The Dalles (OR) · Grade 11

Date Meet Event Result Place Rating Difficulty PR/SR Flags
2021-11-06 Lane Community College 5000m 22:30.5 54th · 3rd on team 122.4 +0.042 ★CR CSR
2021-10-27 Pendleton Country Club 5000m 22:01 11th · 3rd on team 123.3 +0.025 ★CR CSR
2021-10-07 Thompson Ranch 5000m 21:54.2 7th · 3rd on team 125.1 +0.041 PR ★CR ★R SR CSR RSR
2021-10-01 Joe Dancer Park 5000m 22:22.3 45th · 3rd on team 123.5 +0.047 PR ★CR R SR CSR RSR
2021-09-24 Sorosis Park 5000m 24:58.9 10th · 3rd on team 115.5 +0.083 CSR RSR
2021-09-18 Oregon City High School 5000m 23:48.6 81st · 3rd on team 115.0 +0.039 CR SR CSR RSR
2021-09-10 Big River Golf Course 5000m 25:00.2 29th · 4th on team 109.5 +0.053 ★CR SR CSR RSR
2021-09-04 The Hydrangea Ranch 5000m 27:02.1 83rd · 4th on team 109.3 +0.121 CR SR CSR RSR

2020 XC 96.0

The Dalles (OR) · Grade 10

Date Meet Event Result Place Rating Difficulty PR/SR Flags
2021-04-07 Sorosis Park 5000m 28:05.3 32nd · 7th on team 101.2 +0.083 SR CSR RSR
2021-03-24 West Canyon Rim City Park 5000m 28:57 14th · 7th on team 96.8 +0.066 ★CR SR CSR
2021-03-17 Pendleton Country Club 5000m 30:18.7 17th · 6th on team 88.9 +0.025 CR CSR
2021-03-10 Sorosis Park 5000m 29:15.4 11th · 6th on team 97.2 +0.083 SR CSR RSR

2019 XC 112.4

The Dalles (OR) · Grade 9

Date Meet Event Result Place Rating Difficulty PR/SR Flags
2019-11-09 Lane Community College 5000m 23:19.2 85th · 7th on team 115.5 +0.042 CR CSR
2019-10-31 Sorosis Park 5000m 23:46.7 14th · 2nd on team 118.1 +0.083 ★CR R CSR RSR
2019-10-17 Wildhorse Golf Course 5000m 22:48.7 46th · 7th on team 117.1 +0.020 PR ★CR R SR CSR RSR
2019-10-11 Champoeg State Park 5000m 23:14.3 86th · 7th on team 116.1 +0.034 PR ★CR R SR CSR RSR
2019-09-28 Lake Sammamish State Park 5000m 23:54.1 74th · 1st on team 109.7 +0.010 PR ★CR SR CSR
2019-09-21 Sorosis Park 5000m 25:36.9 19th · 2nd on team 110.5 +0.083 CR CSR
2019-09-14 Oregon City High School 5000m 24:25.6 7th · 2nd on team 111.4 +0.039 PR CR R SR CSR RSR
2019-09-07 Tualatin HS 5000m 26:34.7 16th · 4th on team 101.0 +0.043 PR ★CR R SR CSR RSR
2019-08-31 Sorosis Park 5000m 33:49.4 26th · 13th on team +0.083 PR CR SR CSR

Track & Field

2023 TF 110.1

The Dalles (OR) · Grade 12

Date Meet Event Result Place Rating Difficulty PR/SR Flags
2023-05-20 4A-2 Tri-Valley Conference Championships 3000m 13:02.77 6th · 2nd on team 106.4 -0.020
2023-05-20 4A-2 Tri-Valley Conference Championships 800m 2:40.87 5th · 2nd on team 115.8 -0.020 RSR
2023-05-10 Madras Home Meet 800m 2:43.61 5th · 3rd on team 112.6 -0.027
2023-05-10 Madras Home Meet 1500m 5:40.41 4th · 3rd on team 111.8 -0.027
2023-05-06 Rex Putnam Invitational 3000m 12:29.55 1st · 1st on team 108.0 -0.043
2023-05-06 Rex Putnam Invitational 1500m 5:32.87 4th · 3rd on team 112.7 -0.043 ★PR SR
2023-05-03 The Dalles, Molalla @ Madras 800m 2:51.29 7th · 3rd on team 108.0 -0.027
2023-05-03 The Dalles, Molalla @ Madras 1500m 5:45.95 5th · 3rd on team 110.5 -0.027
2023-04-19 Estacada, Madras @ The Dalles 800m 2:40.51 3rd · 1st on team 115.6 -0.026 ★PR SR RSR
2023-04-15 Sherwood Need for Speed Classic 3000m 12:25.11 30th · 2nd on team 108.6 -0.044 SR
2023-04-12 Estacada, The Dalles @ Gladstone 1500m 5:43.23 3rd · 2nd on team 109.8 -0.040
2023-04-12 Estacada, The Dalles @ Gladstone 800m 2:49.99 5th · 3rd on team 107.3 -0.040 PR SR
2023-04-05 Crook County, Gladstone @ The Dalles 800m 2:50.73 5th · 3rd on team 108.4 -0.026 PR SR RSR
2023-04-05 Crook County, Gladstone @ The Dalles 1500m 5:41.31 4th · 2nd on team 112.0 -0.026 SR RSR
2023-03-17 Mullen Leavitt Invitational 1500m 6:03.4 4th · 2nd on team 105.2 -0.026 SR RSR
2023-03-17 Mullen Leavitt Invitational 800m 2:50.8 4th · 2nd on team 108.4 -0.026 SR RSR

2022 TF 105.6

The Dalles (OR) · Grade 11

Date Meet Event Result Place Rating Difficulty PR/SR Flags
2022-05-14 5A-4 Intermountain Conference Championships 1500m 5:41.76 7th · 2nd on team 113.4 -0.019 RSR
2022-05-14 5A-4 Intermountain Conference Championships 3000m 12:40.05 6th · 3rd on team 109.8 -0.019
2022-05-07 Rex Putnam Invitational 3000m 12:17.21 1st · 1st on team 111.0 -0.043 ★PR SR
2022-04-29 2022 Dean Nice Invitational 800m 2:50.77 17th · 2nd on team 106.6 -0.047 PR SR
2022-04-29 2022 Dean Nice Invitational 1500m 5:35.32 13th · 1st on team 112.0 -0.047 PR SR RSR
2022-04-23 The Willamette Falls Invitational 1500m 5:36.92 20th · 2nd on team 111.3 -0.047 PR SR RSR
2022-04-23 The Willamette Falls Invitational 3000m 12:54.09 20th · 3rd on team 104.8 -0.047
2022-04-20 Hood River Valley HS League Meet 800m 2:54.34 3rd · 2nd on team 106.4 -0.030 PR SR RSR
2022-04-20 Hood River Valley HS League Meet 1500m 6:09.88 8th · 4th on team 103.6 -0.030
2022-04-15 Pizza Schmizza Canby Invitational 3000m 13:04.29 5th · 2nd on team 103.8 -0.045
2022-04-09 Sherwood "Need For Speed" Classic 3000m 12:53.12 18th · 2nd on team 105.7 -0.044 PR SR
2022-04-07 Hood River Valley HS league meet 800m 3:00.91 9th · 4th on team 101.9 -0.030 PR SR
2022-04-07 Hood River Valley HS league meet 1500m 6:00.39 8th · 2nd on team 105.9 -0.030 PR SR RSR
2022-03-30 Hillsboro & The Dalles @ St. Helens 1500m 6:23.68 1st · 1st on team 98.6 -0.042
2022-03-30 Hillsboro & The Dalles @ St. Helens 800m 3:06.69 2nd · 2nd on team 98.1 -0.042
2022-03-18 Mullen Leavitt Invite 800m 3:06.55 7th · 2nd on team 99.7 -0.026 SR RSR
2022-03-18 Mullen Leavitt Invite 1500m 6:11.63 7th · 2nd on team 103.4 -0.026 SR RSR

2021 TF 98.0

The Dalles (OR) · Grade 10

Date Meet Event Result Place Rating Difficulty PR/SR Flags
2021-05-15 5A-4 IMC District Championships 3000m 14:43.83 7th · 2nd on team 95.0 -0.028 PR SR
2021-05-15 5A-4 IMC District Championships 1500m 6:21.25 11th · 2nd on team 101.3 -0.028
2021-05-05 @The Dalles vs Crook County 1500m 6:08 5th · 3rd on team 104.9 -0.026 PR SR RSR
2021-05-05 @The Dalles vs Crook County 800m 3:04.85 4th · 3rd on team 100.9 -0.026 PR SR
2021-04-21 Redmond vs Hood River and The Dallas 800m 3:13.98 7th · 4th on team 97.1 -0.015 RSR
2021-04-21 Redmond vs Hood River and The Dallas 1500m 6:59.2 7th · 2nd on team 93.2 -0.015
2021-04-16 @The Dalles vs Horizon Christian (HR) 1500m 6:46.54 2nd · 2nd on team 94.5 -0.026 PR SR RSR
2021-04-16 @The Dalles vs Horizon Christian (HR) 800m 3:11.24 3rd · 3rd on team 96.9 -0.026 PR SR RSR